sensor_id;sensor_type;location;lat;lon;timestamp;P1;durP1;ratioP1;P2;durP2;ratioP2
9745;SDS011;4912;50.836;12.958;2022-07-29T00:02:08;11.25;;;2.90;;
9745;SDS011;4912;50.836;12.958;2022-07-29T00:04:39;6.20;;;2.30;;
9745;SDS011;4912;50.836;12.958;2022-07-29T00:07:09;4.53;;;2.22;;
9745;SDS011;4912;50.836;12.958;2022-07-29T00:09:39;6.55;;;2.60;;
9745;SDS011;4912;50.836;12.958;2022-07-29T00:12:18;10.23;;;3.03;;
9745;SDS011;4912;50.836;12.958;2022-07-29T00:14:52;6.53;;;2.90;;
9745;SDS011;4912;50.836;12.958;2022-07-29T00:17:26;8.95;;;3.20;;
9745;SDS011;4912;50.836;12.958;2022-07-29T00:19:56;9.07;;;3.95;;
9745;SDS011;4912;50.836;12.958;2022-07-29T00:22:26;9.38;;;3.20;;
9745;SDS011;4912;50.836;12.958;2022-07-29T00:24:57;6.32;;;3.25;;
9745;SDS011;4912;50.836;12.958;2022-07-29T00:27:27;7.70;;;3.38;;
9745;SDS011;4912;50.836;12.958;2022-07-29T00:29:57;8.90;;;3.78;;
9745;SDS011;4912;50.836;12.958;2022-07-29T00:32:30;9.40;;;3.85;;
9745;SDS011;4912;50.836;12.958;2022-07-29T00:35:00;10.50;;;3.97;;
9745;SDS011;4912;50.836;12.958;2022-07-29T00:37:43;7.82;;;3.80;;
9745;SDS011;4912;50.836;12.958;2022-07-29T00:40:13;8.00;;;3.65;;
9745;SDS011;4912;50.836;12.958;2022-07-29T00:42:51;9.18;;;4.15;;
9745;SDS011;4912;50.836;12.958;2022-07-29T00:45:22;9.02;;;3.67;;
9745;SDS011;4912;50.836;12.958;2022-07-29T00:47:55;12.93;;;4.28;;
9745;SDS011;4912;50.836;12.958;2022-07-29T00:50:25;8.35;;;3.80;;
9745;SDS011;4912;50.836;12.958;2022-07-29T00:55:26;10.90;;;5.23;;
9745;SDS011;4912;50.836;12.958;2022-07-29T01:00:28;10.88;;;5.45;;
9745;SDS011;4912;50.836;12.958;2022-07-29T01:03:01;11.98;;;5.70;;
9745;SDS011;4912;50.836;12.958;2022-07-29T01:05:32;12.55;;;6.20;;
9745;SDS011;4912;50.836;12.958;2022-07-29T01:08:15;14.73;;;6.13;;
9745;SDS011;4912;50.836;12.958;2022-07-29T01:10:46;12.52;;;6.45;;
9745;SDS011;4912;50.836;12.958;2022-07-29T01:13:20;10.90;;;5.75;;
9745;SDS011;4912;50.836;12.958;2022-07-29T01:15:53;13.25;;;6.20;;
9745;SDS011;4912;50.836;12.958;2022-07-29T01:18:31;15.32;;;5.28;;
9745;SDS011;4912;50.836;12.958;2022-07-29T01:21:13;11.40;;;5.15;;
9745;SDS011;4912;50.836;12.958;2022-07-29T01:24:07;13.52;;;5.55;;
9745;SDS011;4912;50.836;12.958;2022-07-29T01:26:50;11.27;;;6.05;;
9745;SDS011;4912;50.836;12.958;2022-07-29T01:30:16;17.70;;;6.30;;
9745;SDS011;4912;50.836;12.958;2022-07-29T01:32:50;13.30;;;6.30;;
9745;SDS011;4912;50.836;12.958;2022-07-29T01:35:26;14.60;;;7.13;;
9745;SDS011;4912;50.836;12.958;2022-07-29T01:38:05;16.48;;;7.70;;
9745;SDS011;4912;50.836;12.958;2022-07-29T01:40:43;14.43;;;7.60;;
9745;SDS011;4912;50.836;12.958;2022-07-29T01:43:18;14.52;;;6.90;;
9745;SDS011;4912;50.836;12.958;2022-07-29T01:45:59;15.13;;;7.68;;
9745;SDS011;4912;50.836;12.958;2022-07-29T01:48:36;13.93;;;7.45;;
9745;SDS011;4912;50.836;12.958;2022-07-29T01:51:14;14.90;;;7.78;;
9745;SDS011;4912;50.836;12.958;2022-07-29T01:53:50;10.88;;;6.68;;
9745;SDS011;4912;50.836;12.958;2022-07-29T01:56:29;16.15;;;7.43;;
9745;SDS011;4912;50.836;12.958;2022-07-29T01:59:01;12.93;;;6.93;;
9745;SDS011;4912;50.836;12.958;2022-07-29T02:01:39;14.80;;;6.53;;
9745;SDS011;4912;50.836;12.958;2022-07-29T02:04:12;11.13;;;6.15;;
9745;SDS011;4912;50.836;12.958;2022-07-29T02:06:57;11.45;;;6.68;;
9745;SDS011;4912;50.836;12.958;2022-07-29T02:09:32;12.38;;;6.90;;
9745;SDS011;4912;50.836;12.958;2022-07-29T02:12:05;13.32;;;6.40;;
9745;SDS011;4912;50.836;12.958;2022-07-29T02:14:38;16.75;;;6.50;;
9745;SDS011;4912;50.836;12.958;2022-07-29T02:17:17;14.45;;;6.90;;
9745;SDS011;4912;50.836;12.958;2022-07-29T02:19:53;12.30;;;5.90;;
9745;SDS011;4912;50.836;12.958;2022-07-29T02:22:29;12.52;;;7.25;;
9745;SDS011;4912;50.836;12.958;2022-07-29T02:25:03;11.27;;;6.15;;
9745;SDS011;4912;50.836;12.958;2022-07-29T02:27:39;12.27;;;6.80;;
9745;SDS011;4912;50.836;12.958;2022-07-29T02:30:12;12.90;;;6.80;;
9745;SDS011;4912;50.836;12.958;2022-07-29T02:32:45;19.52;;;7.35;;
9745;SDS011;4912;50.836;12.958;2022-07-29T02:35:18;12.90;;;7.03;;
9745;SDS011;4912;50.836;12.958;2022-07-29T02:37:49;15.77;;;6.90;;
9745;SDS011;4912;50.836;12.958;2022-07-29T02:40:34;16.33;;;7.03;;
9745;SDS011;4912;50.836;12.958;2022-07-29T02:43:07;11.93;;;6.68;;
9745;SDS011;4912;50.836;12.958;2022-07-29T02:45:40;13.18;;;6.65;;
9745;SDS011;4912;50.836;12.958;2022-07-29T02:48:14;11.75;;;5.82;;
9745;SDS011;4912;50.836;12.958;2022-07-29T02:50:48;13.10;;;5.85;;
9745;SDS011;4912;50.836;12.958;2022-07-29T02:53:27;11.40;;;5.90;;
9745;SDS011;4912;50.836;12.958;2022-07-29T02:56:04;15.70;;;5.78;;
9745;SDS011;4912;50.836;12.958;2022-07-29T02:58:39;11.82;;;5.32;;
9745;SDS011;4912;50.836;12.958;2022-07-29T03:01:15;10.27;;;5.20;;
9745;SDS011;4912;50.836;12.958;2022-07-29T03:03:51;12.55;;;5.10;;
9745;SDS011;4912;50.836;12.958;2022-07-29T03:06:24;10.00;;;5.35;;
9745;SDS011;4912;50.836;12.958;2022-07-29T03:11:39;13.23;;;5.53;;
9745;SDS011;4912;50.836;12.958;2022-07-29T03:14:16;11.50;;;5.72;;
9745;SDS011;4912;50.836;12.958;2022-07-29T03:16:49;12.15;;;6.97;;
9745;SDS011;4912;50.836;12.958;2022-07-29T03:19:23;10.57;;;6.22;;
9745;SDS011;4912;50.836;12.958;2022-07-29T03:21:55;11.85;;;5.90;;
9745;SDS011;4912;50.836;12.958;2022-07-29T03:24:27;11.50;;;5.50;;
9745;SDS011;4912;50.836;12.958;2022-07-29T03:27:02;10.57;;;5.40;;
9745;SDS011;4912;50.836;12.958;2022-07-29T03:29:34;11.90;;;6.50;;
9745;SDS011;4912;50.836;12.958;2022-07-29T03:32:04;10.30;;;5.25;;
9745;SDS011;4912;50.836;12.958;2022-07-29T03:34:38;13.60;;;5.60;;
9745;SDS011;4912;50.836;12.958;2022-07-29T03:37:09;12.00;;;5.43;;
9745;SDS011;4912;50.836;12.958;2022-07-29T03:39:40;9.50;;;5.30;;
9745;SDS011;4912;50.836;12.958;2022-07-29T03:42:13;10.85;;;5.10;;
9745;SDS011;4912;50.836;12.958;2022-07-29T03:44:46;8.93;;;4.57;;
9745;SDS011;4912;50.836;12.958;2022-07-29T03:47:20;6.18;;;4.05;;
9745;SDS011;4912;50.836;12.958;2022-07-29T03:50:15;11.45;;;4.35;;
9745;SDS011;4912;50.836;12.958;2022-07-29T03:52:47;8.60;;;4.30;;
9745;SDS011;4912;50.836;12.958;2022-07-29T03:55:18;9.85;;;5.13;;
9745;SDS011;4912;50.836;12.958;2022-07-29T03:57:49;14.50;;;5.32;;
9745;SDS011;4912;50.836;12.958;2022-07-29T04:05:23;10.27;;;4.88;;
9745;SDS011;4912;50.836;12.958;2022-07-29T04:07:54;12.48;;;4.70;;
9745;SDS011;4912;50.836;12.958;2022-07-29T04:10:24;7.68;;;4.20;;
9745;SDS011;4912;50.836;12.958;2022-07-29T04:12:58;13.35;;;4.88;;
9745;SDS011;4912;50.836;12.958;2022-07-29T04:15:29;8.27;;;4.68;;
9745;SDS011;4912;50.836;12.958;2022-07-29T04:17:59;12.48;;;4.82;;
9745;SDS011;4912;50.836;12.958;2022-07-29T04:20:32;18.55;;;5.88;;
9745;SDS011;4912;50.836;12.958;2022-07-29T04:23:03;11.15;;;4.70;;
9745;SDS011;4912;50.836;12.958;2022-07-29T04:25:36;10.52;;;5.10;;
9745;SDS011;4912;50.836;12.958;2022-07-29T04:28:08;9.70;;;4.97;;
9745;SDS011;4912;50.836;12.958;2022-07-29T04:30:39;10.90;;;4.30;;
9745;SDS011;4912;50.836;12.958;2022-07-29T04:33:10;16.25;;;5.03;;
9745;SDS011;4912;50.836;12.958;2022-07-29T04:35:43;15.48;;;4.35;;
9745;SDS011;4912;50.836;12.958;2022-07-29T04:38:18;12.07;;;3.92;;
9745;SDS011;4912;50.836;12.958;2022-07-29T04:43:20;34.00;;;5.88;;
9745;SDS011;4912;50.836;12.958;2022-07-29T04:45:50;54.88;;;6.22;;
9745;SDS011;4912;50.836;12.958;2022-07-29T04:48:20;44.00;;;5.70;;
9745;SDS011;4912;50.836;12.958;2022-07-29T04:50:57;22.52;;;4.38;;
9745;SDS011;4912;50.836;12.958;2022-07-29T04:53:27;28.40;;;3.90;;
9745;SDS011;4912;50.836;12.958;2022-07-29T04:55:57;19.38;;;3.83;;
9745;SDS011;4912;50.836;12.958;2022-07-29T04:58:27;12.32;;;3.63;;
9745;SDS011;4912;50.836;12.958;2022-07-29T05:00:58;14.23;;;3.83;;
9745;SDS011;4912;50.836;12.958;2022-07-29T05:03:28;12.27;;;3.28;;
9745;SDS011;4912;50.836;12.958;2022-07-29T05:06:01;18.55;;;3.70;;
9745;SDS011;4912;50.836;12.958;2022-07-29T05:08:31;13.23;;;3.03;;
9745;SDS011;4912;50.836;12.958;2022-07-29T05:11:01;16.23;;;3.22;;
9745;SDS011;4912;50.836;12.958;2022-07-29T05:13:38;16.70;;;3.15;;
9745;SDS011;4912;50.836;12.958;2022-07-29T05:16:12;13.57;;;3.22;;
9745;SDS011;4912;50.836;12.958;2022-07-29T05:18:43;15.68;;;3.55;;
9745;SDS011;4912;50.836;12.958;2022-07-29T05:21:15;11.13;;;3.42;;
9745;SDS011;4912;50.836;12.958;2022-07-29T05:23:46;12.45;;;3.72;;
9745;SDS011;4912;50.836;12.958;2022-07-29T05:26:16;11.98;;;3.83;;
9745;SDS011;4912;50.836;12.958;2022-07-29T05:28:47;11.60;;;3.65;;
9745;SDS011;4912;50.836;12.958;2022-07-29T05:31:17;12.63;;;4.15;;
9745;SDS011;4912;50.836;12.958;2022-07-29T05:33:47;11.35;;;3.75;;
9745;SDS011;4912;50.836;12.958;2022-07-29T05:36:20;12.05;;;4.40;;
9745;SDS011;4912;50.836;12.958;2022-07-29T05:38:50;7.18;;;2.83;;
9745;SDS011;4912;50.836;12.958;2022-07-29T05:43:51;6.87;;;2.90;;
9745;SDS011;4912;50.836;12.958;2022-07-29T05:46:21;6.35;;;3.10;;
9745;SDS011;4912;50.836;12.958;2022-07-29T05:48:51;5.35;;;2.75;;
9745;SDS011;4912;50.836;12.958;2022-07-29T05:51:25;8.82;;;2.72;;
9745;SDS011;4912;50.836;12.958;2022-07-29T05:53:56;5.88;;;3.20;;
9745;SDS011;4912;50.836;12.958;2022-07-29T05:56:26;7.15;;;3.00;;
9745;SDS011;4912;50.836;12.958;2022-07-29T05:58:57;8.40;;;2.80;;
9745;SDS011;4912;50.836;12.958;2022-07-29T06:01:27;8.05;;;2.78;;
9745;SDS011;4912;50.836;12.958;2022-07-29T06:03:58;7.03;;;3.08;;
9745;SDS011;4912;50.836;12.958;2022-07-29T06:06:31;5.35;;;2.85;;
9745;SDS011;4912;50.836;12.958;2022-07-29T06:09:02;6.18;;;2.58;;
9745;SDS011;4912;50.836;12.958;2022-07-29T06:11:38;9.07;;;2.75;;
9745;SDS011;4912;50.836;12.958;2022-07-29T06:14:09;4.68;;;2.55;;
9745;SDS011;4912;50.836;12.958;2022-07-29T06:16:40;6.72;;;2.97;;
9745;SDS011;4912;50.836;12.958;2022-07-29T06:19:10;7.88;;;2.75;;
9745;SDS011;4912;50.836;12.958;2022-07-29T06:21:44;9.80;;;2.75;;
9745;SDS011;4912;50.836;12.958;2022-07-29T06:24:15;9.32;;;3.20;;
9745;SDS011;4912;50.836;12.958;2022-07-29T06:26:46;23.08;;;4.15;;
9745;SDS011;4912;50.836;12.958;2022-07-29T06:29:16;9.75;;;2.80;;
9745;SDS011;4912;50.836;12.958;2022-07-29T06:31:46;10.55;;;2.80;;
9745;SDS011;4912;50.836;12.958;2022-07-29T06:34:17;7.25;;;2.80;;
9745;SDS011;4912;50.836;12.958;2022-07-29T06:36:50;6.97;;;2.88;;
9745;SDS011;4912;50.836;12.958;2022-07-29T06:39:21;7.13;;;2.72;;
9745;SDS011;4912;50.836;12.958;2022-07-29T06:41:52;7.90;;;3.00;;
9745;SDS011;4912;50.836;12.958;2022-07-29T06:44:23;7.13;;;3.00;;
9745;SDS011;4912;50.836;12.958;2022-07-29T06:46:54;11.45;;;3.08;;
9745;SDS011;4912;50.836;12.958;2022-07-29T06:49:24;7.32;;;2.70;;
9745;SDS011;4912;50.836;12.958;2022-07-29T06:51:57;5.45;;;3.08;;
9745;SDS011;4912;50.836;12.958;2022-07-29T06:54:27;6.15;;;2.80;;
9745;SDS011;4912;50.836;12.958;2022-07-29T06:56:58;10.15;;;3.03;;
9745;SDS011;4912;50.836;12.958;2022-07-29T06:59:28;5.70;;;2.72;;
9745;SDS011;4912;50.836;12.958;2022-07-29T07:02:01;7.72;;;2.75;;
9745;SDS011;4912;50.836;12.958;2022-07-29T07:04:32;7.47;;;2.97;;
9745;SDS011;4912;50.836;12.958;2022-07-29T07:07:04;8.25;;;2.90;;
9745;SDS011;4912;50.836;12.958;2022-07-29T07:09:35;9.18;;;2.70;;
9745;SDS011;4912;50.836;12.958;2022-07-29T07:12:06;10.60;;;2.97;;
9745;SDS011;4912;50.836;12.958;2022-07-29T07:14:38;7.25;;;2.92;;
9745;SDS011;4912;50.836;12.958;2022-07-29T07:17:09;10.57;;;3.63;;
9745;SDS011;4912;50.836;12.958;2022-07-29T07:19:39;7.85;;;3.42;;
9745;SDS011;4912;50.836;12.958;2022-07-29T07:22:12;8.30;;;3.05;;
9745;SDS011;4912;50.836;12.958;2022-07-29T07:24:42;7.80;;;3.10;;
9745;SDS011;4912;50.836;12.958;2022-07-29T07:27:12;9.05;;;3.17;;
9745;SDS011;4912;50.836;12.958;2022-07-29T07:29:43;8.55;;;2.95;;
9745;SDS011;4912;50.836;12.958;2022-07-29T07:32:13;5.28;;;2.72;;
9745;SDS011;4912;50.836;12.958;2022-07-29T07:37:16;8.40;;;2.57;;
9745;SDS011;4912;50.836;12.958;2022-07-29T07:39:47;5.22;;;2.55;;
9745;SDS011;4912;50.836;12.958;2022-07-29T07:42:17;5.45;;;2.67;;
9745;SDS011;4912;50.836;12.958;2022-07-29T07:44:47;7.50;;;2.67;;
9745;SDS011;4912;50.836;12.958;2022-07-29T07:47:38;7.72;;;4.28;;
9745;SDS011;4912;50.836;12.958;2022-07-29T07:50:09;9.18;;;3.50;;
9745;SDS011;4912;50.836;12.958;2022-07-29T07:52:51;7.32;;;3.05;;
9745;SDS011;4912;50.836;12.958;2022-07-29T07:55:24;5.33;;;2.50;;
9745;SDS011;4912;50.836;12.958;2022-07-29T07:58:15;7.57;;;2.85;;
9745;SDS011;4912;50.836;12.958;2022-07-29T08:00:46;7.10;;;2.67;;
9745;SDS011;4912;50.836;12.958;2022-07-29T08:05:46;7.57;;;2.80;;
9745;SDS011;4912;50.836;12.958;2022-07-29T08:08:20;8.25;;;2.95;;
9745;SDS011;4912;50.836;12.958;2022-07-29T08:10:50;6.22;;;2.88;;
9745;SDS011;4912;50.836;12.958;2022-07-29T08:13:24;6.30;;;2.95;;
9745;SDS011;4912;50.836;12.958;2022-07-29T08:15:57;9.07;;;3.03;;
9745;SDS011;4912;50.836;12.958;2022-07-29T08:18:29;13.45;;;3.10;;
9745;SDS011;4912;50.836;12.958;2022-07-29T08:21:00;5.43;;;2.95;;
9745;SDS011;4912;50.836;12.958;2022-07-29T08:23:33;5.88;;;2.90;;
9745;SDS011;4912;50.836;12.958;2022-07-29T08:26:14;5.60;;;2.65;;
9745;SDS011;4912;50.836;12.958;2022-07-29T08:28:46;9.65;;;2.92;;
9745;SDS011;4912;50.836;12.958;2022-07-29T08:31:17;4.75;;;2.55;;
9745;SDS011;4912;50.836;12.958;2022-07-29T08:36:17;10.00;;;2.97;;
9745;SDS011;4912;50.836;12.958;2022-07-29T08:41:20;9.15;;;3.38;;
9745;SDS011;4912;50.836;12.958;2022-07-29T08:43:51;8.35;;;2.80;;
9745;SDS011;4912;50.836;12.958;2022-07-29T08:46:21;5.50;;;2.40;;
9745;SDS011;4912;50.836;12.958;2022-07-29T08:48:52;11.93;;;2.70;;
9745;SDS011;4912;50.836;12.958;2022-07-29T08:51:22;7.85;;;2.85;;
9745;SDS011;4912;50.836;12.958;2022-07-29T08:53:59;5.82;;;2.80;;
9745;SDS011;4912;50.836;12.958;2022-07-29T08:56:30;8.65;;;3.10;;
9745;SDS011;4912;50.836;12.958;2022-07-29T08:59:02;9.88;;;2.70;;
9745;SDS011;4912;50.836;12.958;2022-07-29T09:01:37;7.25;;;2.70;;
9745;SDS011;4912;50.836;12.958;2022-07-29T09:04:11;5.45;;;2.47;;
9745;SDS011;4912;50.836;12.958;2022-07-29T09:06:44;7.40;;;2.95;;
9745;SDS011;4912;50.836;12.958;2022-07-29T09:09:19;5.75;;;2.50;;
9745;SDS011;4912;50.836;12.958;2022-07-29T09:11:50;6.53;;;2.40;;
9745;SDS011;4912;50.836;12.958;2022-07-29T09:14:21;5.55;;;2.67;;
9745;SDS011;4912;50.836;12.958;2022-07-29T09:16:52;4.82;;;2.20;;
9745;SDS011;4912;50.836;12.958;2022-07-29T09:19:25;6.22;;;2.55;;
9745;SDS011;4912;50.836;12.958;2022-07-29T09:22:01;7.85;;;2.70;;
9745;SDS011;4912;50.836;12.958;2022-07-29T09:24:40;5.90;;;2.70;;
9745;SDS011;4912;50.836;12.958;2022-07-29T09:27:19;3.97;;;2.60;;
9745;SDS011;4912;50.836;12.958;2022-07-29T09:29:56;3.85;;;2.50;;
9745;SDS011;4912;50.836;12.958;2022-07-29T09:32:29;7.63;;;2.90;;
9745;SDS011;4912;50.836;12.958;2022-07-29T09:37:47;8.70;;;2.78;;
9745;SDS011;4912;50.836;12.958;2022-07-29T09:40:21;10.85;;;4.57;;
9745;SDS011;4912;50.836;12.958;2022-07-29T09:42:54;5.78;;;2.78;;
9745;SDS011;4912;50.836;12.958;2022-07-29T09:45:26;11.18;;;3.00;;
9745;SDS011;4912;50.836;12.958;2022-07-29T09:47:58;6.28;;;3.00;;
9745;SDS011;4912;50.836;12.958;2022-07-29T09:50:36;5.57;;;2.53;;
9745;SDS011;4912;50.836;12.958;2022-07-29T09:53:08;5.00;;;2.55;;
9745;SDS011;4912;50.836;12.958;2022-07-29T09:55:48;7.30;;;2.97;;
9745;SDS011;4912;50.836;12.958;2022-07-29T09:58:19;4.47;;;2.47;;
9745;SDS011;4912;50.836;12.958;2022-07-29T10:00:52;8.73;;;2.90;;
9745;SDS011;4912;50.836;12.958;2022-07-29T10:03:26;6.38;;;2.78;;
9745;SDS011;4912;50.836;12.958;2022-07-29T10:06:06;5.85;;;2.55;;
9745;SDS011;4912;50.836;12.958;2022-07-29T10:08:40;7.63;;;2.70;;
9745;SDS011;4912;50.836;12.958;2022-07-29T10:11:14;6.70;;;2.83;;
9745;SDS011;4912;50.836;12.958;2022-07-29T10:13:47;3.55;;;2.40;;
9745;SDS011;4912;50.836;12.958;2022-07-29T10:16:18;6.07;;;2.53;;
9745;SDS011;4912;50.836;12.958;2022-07-29T10:18:48;7.10;;;2.85;;
9745;SDS011;4912;50.836;12.958;2022-07-29T10:21:19;6.43;;;2.75;;
9745;SDS011;4912;50.836;12.958;2022-07-29T10:24:02;5.75;;;2.80;;
9745;SDS011;4912;50.836;12.958;2022-07-29T10:26:43;6.53;;;2.43;;
9745;SDS011;4912;50.836;12.958;2022-07-29T10:29:14;6.80;;;2.90;;
9745;SDS011;4912;50.836;12.958;2022-07-29T10:31:48;4.95;;;2.90;;
9745;SDS011;4912;50.836;12.958;2022-07-29T10:34:31;8.10;;;3.08;;
9745;SDS011;4912;50.836;12.958;2022-07-29T10:37:22;4.50;;;2.70;;
9745;SDS011;4912;50.836;12.958;2022-07-29T10:40:04;5.00;;;2.55;;
9745;SDS011;4912;50.836;12.958;2022-07-29T10:43:06;6.85;;;2.90;;
9745;SDS011;4912;50.836;12.958;2022-07-29T10:45:48;3.28;;;2.20;;
9745;SDS011;4912;50.836;12.958;2022-07-29T10:48:25;4.30;;;2.63;;
9745;SDS011;4912;50.836;12.958;2022-07-29T10:50:57;5.65;;;2.60;;
9745;SDS011;4912;50.836;12.958;2022-07-29T10:56:25;4.90;;;2.88;;
9745;SDS011;4912;50.836;12.958;2022-07-29T11:02:02;6.10;;;3.70;;
9745;SDS011;4912;50.836;12.958;2022-07-29T11:05:27;4.10;;;2.42;;
9745;SDS011;4912;50.836;12.958;2022-07-29T11:08:19;6.10;;;2.92;;
9745;SDS011;4912;50.836;12.958;2022-07-29T11:14:03;4.25;;;2.50;;
9745;SDS011;4912;50.836;12.958;2022-07-29T11:19:39;5.35;;;2.97;;
9745;SDS011;4912;50.836;12.958;2022-07-29T11:22:31;4.60;;;2.92;;
9745;SDS011;4912;50.836;12.958;2022-07-29T11:25:14;9.32;;;2.80;;
9745;SDS011;4912;50.836;12.958;2022-07-29T11:28:08;5.25;;;3.00;;
9745;SDS011;4912;50.836;12.958;2022-07-29T11:30:51;4.88;;;3.08;;
9745;SDS011;4912;50.836;12.958;2022-07-29T11:33:31;4.40;;;2.80;;
9745;SDS011;4912;50.836;12.958;2022-07-29T11:36:22;4.80;;;2.75;;
9745;SDS011;4912;50.836;12.958;2022-07-29T11:39:05;5.63;;;2.60;;
9745;SDS011;4912;50.836;12.958;2022-07-29T11:45:10;4.30;;;2.83;;
9745;SDS011;4912;50.836;12.958;2022-07-29T11:48:03;5.93;;;2.60;;
9745;SDS011;4912;50.836;12.958;2022-07-29T11:50:58;4.80;;;2.97;;
9745;SDS011;4912;50.836;12.958;2022-07-29T11:53:32;4.78;;;2.90;;
9745;SDS011;4912;50.836;12.958;2022-07-29T11:56:03;3.33;;;2.50;;
9745;SDS011;4912;50.836;12.958;2022-07-29T11:58:42;5.23;;;2.50;;
9745;SDS011;4912;50.836;12.958;2022-07-29T12:01:12;7.93;;;2.97;;
9745;SDS011;4912;50.836;12.958;2022-07-29T12:03:43;8.00;;;2.53;;
9745;SDS011;4912;50.836;12.958;2022-07-29T12:06:16;5.85;;;2.92;;
9745;SDS011;4912;50.836;12.958;2022-07-29T12:08:46;5.30;;;2.92;;
9745;SDS011;4912;50.836;12.958;2022-07-29T12:11:17;4.47;;;2.60;;
9745;SDS011;4912;50.836;12.958;2022-07-29T12:13:49;5.25;;;3.03;;
9745;SDS011;4912;50.836;12.958;2022-07-29T12:16:20;7.45;;;3.08;;
9745;SDS011;4912;50.836;12.958;2022-07-29T12:18:58;6.10;;;3.00;;
9745;SDS011;4912;50.836;12.958;2022-07-29T12:21:45;6.32;;;3.00;;
9745;SDS011;4912;50.836;12.958;2022-07-29T12:24:22;3.65;;;2.60;;
9745;SDS011;4912;50.836;12.958;2022-07-29T12:26:53;9.40;;;2.88;;
9745;SDS011;4912;50.836;12.958;2022-07-29T12:29:27;6.40;;;2.50;;
9745;SDS011;4912;50.836;12.958;2022-07-29T12:32:01;4.65;;;2.92;;
9745;SDS011;4912;50.836;12.958;2022-07-29T12:34:40;4.45;;;2.63;;
9745;SDS011;4912;50.836;12.958;2022-07-29T12:37:13;10.13;;;3.20;;
9745;SDS011;4912;50.836;12.958;2022-07-29T12:39:44;7.85;;;4.28;;
9745;SDS011;4912;50.836;12.958;2022-07-29T12:42:15;6.80;;;3.85;;
9745;SDS011;4912;50.836;12.958;2022-07-29T12:44:49;6.40;;;2.90;;
9745;SDS011;4912;50.836;12.958;2022-07-29T12:47:20;5.28;;;3.08;;
9745;SDS011;4912;50.836;12.958;2022-07-29T12:49:51;5.40;;;2.65;;
9745;SDS011;4912;50.836;12.958;2022-07-29T12:52:41;5.50;;;2.67;;
9745;SDS011;4912;50.836;12.958;2022-07-29T12:55:11;5.38;;;2.97;;
9745;SDS011;4912;50.836;12.958;2022-07-29T12:57:45;5.88;;;2.65;;
9745;SDS011;4912;50.836;12.958;2022-07-29T13:00:21;6.10;;;2.85;;
9745;SDS011;4912;50.836;12.958;2022-07-29T13:02:54;4.88;;;2.90;;
9745;SDS011;4912;50.836;12.958;2022-07-29T13:05:38;6.43;;;2.65;;
9745;SDS011;4912;50.836;12.958;2022-07-29T13:08:17;5.22;;;2.90;;
9745;SDS011;4912;50.836;12.958;2022-07-29T13:10:48;4.45;;;3.25;;
9745;SDS011;4912;50.836;12.958;2022-07-29T13:13:19;5.82;;;2.60;;
9745;SDS011;4912;50.836;12.958;2022-07-29T13:16:05;5.95;;;3.03;;
9745;SDS011;4912;50.836;12.958;2022-07-29T13:18:37;10.48;;;3.03;;
9745;SDS011;4912;50.836;12.958;2022-07-29T13:21:11;4.10;;;2.58;;
9745;SDS011;4912;50.836;12.958;2022-07-29T13:23:47;5.25;;;2.40;;
9745;SDS011;4912;50.836;12.958;2022-07-29T13:26:17;5.53;;;2.20;;
9745;SDS011;4912;50.836;12.958;2022-07-29T13:28:47;4.13;;;2.67;;
9745;SDS011;4912;50.836;12.958;2022-07-29T13:31:18;6.88;;;2.97;;
9745;SDS011;4912;50.836;12.958;2022-07-29T13:33:48;11.60;;;2.63;;
9745;SDS011;4912;50.836;12.958;2022-07-29T13:36:20;8.35;;;3.30;;
9745;SDS011;4912;50.836;12.958;2022-07-29T13:38:52;7.13;;;2.80;;
9745;SDS011;4912;50.836;12.958;2022-07-29T13:41:23;6.07;;;2.92;;
9745;SDS011;4912;50.836;12.958;2022-07-29T13:43:54;6.05;;;3.22;;
9745;SDS011;4912;50.836;12.958;2022-07-29T13:46:24;5.07;;;2.70;;
9745;SDS011;4912;50.836;12.958;2022-07-29T13:48:54;6.65;;;3.88;;
9745;SDS011;4912;50.836;12.958;2022-07-29T13:51:24;6.60;;;3.30;;
9745;SDS011;4912;50.836;12.958;2022-07-29T13:53:57;13.45;;;9.95;;
9745;SDS011;4912;50.836;12.958;2022-07-29T13:56:28;15.63;;;8.93;;
9745;SDS011;4912;50.836;12.958;2022-07-29T13:58:58;17.00;;;11.55;;
9745;SDS011;4912;50.836;12.958;2022-07-29T14:01:28;5.10;;;3.15;;
9745;SDS011;4912;50.836;12.958;2022-07-29T14:03:59;10.05;;;3.10;;
9745;SDS011;4912;50.836;12.958;2022-07-29T14:06:29;7.43;;;2.95;;
9745;SDS011;4912;50.836;12.958;2022-07-29T14:09:03;6.88;;;3.15;;
9745;SDS011;4912;50.836;12.958;2022-07-29T14:11:35;5.53;;;2.92;;
9745;SDS011;4912;50.836;12.958;2022-07-29T14:14:06;3.60;;;2.42;;
9745;SDS011;4912;50.836;12.958;2022-07-29T14:16:37;8.55;;;2.70;;
9745;SDS011;4912;50.836;12.958;2022-07-29T14:19:15;5.05;;;2.72;;
9745;SDS011;4912;50.836;12.958;2022-07-29T14:21:46;5.15;;;2.38;;
9745;SDS011;4912;50.836;12.958;2022-07-29T14:24:19;9.20;;;2.60;;
9745;SDS011;4912;50.836;12.958;2022-07-29T14:26:51;6.80;;;2.70;;
9745;SDS011;4912;50.836;12.958;2022-07-29T14:29:21;5.97;;;2.30;;
9745;SDS011;4912;50.836;12.958;2022-07-29T14:32:04;7.60;;;3.25;;
9745;SDS011;4912;50.836;12.958;2022-07-29T14:34:35;4.50;;;2.63;;
9745;SDS011;4912;50.836;12.958;2022-07-29T14:37:06;5.28;;;2.90;;
9745;SDS011;4912;50.836;12.958;2022-07-29T14:39:44;9.02;;;2.83;;
9745;SDS011;4912;50.836;12.958;2022-07-29T14:42:14;5.10;;;2.50;;
9745;SDS011;4912;50.836;12.958;2022-07-29T14:44:44;4.13;;;2.60;;
9745;SDS011;4912;50.836;12.958;2022-07-29T14:47:15;7.78;;;2.80;;
9745;SDS011;4912;50.836;12.958;2022-07-29T14:49:46;7.32;;;2.78;;
9745;SDS011;4912;50.836;12.958;2022-07-29T14:54:48;5.05;;;3.05;;
9745;SDS011;4912;50.836;12.958;2022-07-29T14:57:19;5.75;;;3.17;;
9745;SDS011;4912;50.836;12.958;2022-07-29T14:59:49;5.47;;;2.42;;
9745;SDS011;4912;50.836;12.958;2022-07-29T15:02:20;8.75;;;3.25;;
9745;SDS011;4912;50.836;12.958;2022-07-29T15:07:40;5.15;;;3.10;;
9745;SDS011;4912;50.836;12.958;2022-07-29T15:10:13;8.30;;;3.50;;
9745;SDS011;4912;50.836;12.958;2022-07-29T15:12:44;11.43;;;3.75;;
9745;SDS011;4912;50.836;12.958;2022-07-29T15:17:44;11.83;;;4.17;;
9745;SDS011;4912;50.836;12.958;2022-07-29T15:20:14;6.28;;;3.60;;
9745;SDS011;4912;50.836;12.958;2022-07-29T15:22:45;8.75;;;4.07;;
9745;SDS011;4912;50.836;12.958;2022-07-29T15:25:18;7.78;;;3.58;;
9745;SDS011;4912;50.836;12.958;2022-07-29T15:27:48;6.80;;;4.07;;
9745;SDS011;4912;50.836;12.958;2022-07-29T15:30:23;6.88;;;4.90;;
9745;SDS011;4912;50.836;12.958;2022-07-29T15:33:00;6.90;;;4.40;;
9745;SDS011;4912;50.836;12.958;2022-07-29T15:35:31;24.92;;;17.80;;
9745;SDS011;4912;50.836;12.958;2022-07-29T15:38:06;7.32;;;3.90;;
9745;SDS011;4912;50.836;12.958;2022-07-29T15:43:10;5.70;;;3.58;;
9745;SDS011;4912;50.836;12.958;2022-07-29T15:45:42;7.70;;;3.90;;
9745;SDS011;4912;50.836;12.958;2022-07-29T15:48:35;6.90;;;4.40;;
9745;SDS011;4912;50.836;12.958;2022-07-29T15:51:08;5.88;;;3.50;;
9745;SDS011;4912;50.836;12.958;2022-07-29T15:57:05;6.30;;;3.60;;
9745;SDS011;4912;50.836;12.958;2022-07-29T15:59:36;5.43;;;3.50;;
9745;SDS011;4912;50.836;12.958;2022-07-29T16:04:36;5.78;;;3.35;;
9745;SDS011;4912;50.836;12.958;2022-07-29T16:07:07;6.35;;;3.78;;
9745;SDS011;4912;50.836;12.958;2022-07-29T16:09:37;8.68;;;3.45;;
9745;SDS011;4912;50.836;12.958;2022-07-29T16:12:10;6.32;;;3.22;;
9745;SDS011;4912;50.836;12.958;2022-07-29T16:14:41;5.93;;;3.20;;
9745;SDS011;4912;50.836;12.958;2022-07-29T16:17:11;6.78;;;4.82;;
9745;SDS011;4912;50.836;12.958;2022-07-29T16:19:41;6.20;;;3.90;;
9745;SDS011;4912;50.836;12.958;2022-07-29T16:24:42;5.72;;;3.13;;
9745;SDS011;4912;50.836;12.958;2022-07-29T16:27:15;4.57;;;3.20;;
9745;SDS011;4912;50.836;12.958;2022-07-29T16:29:50;5.55;;;3.40;;
9745;SDS011;4912;50.836;12.958;2022-07-29T16:32:21;5.28;;;3.45;;
9745;SDS011;4912;50.836;12.958;2022-07-29T16:34:51;5.00;;;3.10;;
9745;SDS011;4912;50.836;12.958;2022-07-29T16:37:21;6.63;;;3.70;;
9745;SDS011;4912;50.836;12.958;2022-07-29T16:39:54;5.38;;;4.10;;
9745;SDS011;4912;50.836;12.958;2022-07-29T16:42:27;7.20;;;4.60;;
9745;SDS011;4912;50.836;12.958;2022-07-29T16:45:12;5.43;;;3.67;;